Time;durP1;ratioP1;P1;durP2;ratioP2;P2;SDS_P1;SDS_P2;PMS_P1;PMS_P2;Temp;Humidity;BMP_temperature;BMP_pressure;BME280_temperature;BME280_humidity;BME280_pressure;Samples;Min_cycle;Max_cycle;Signal;HPM_P1;HPM_P2
2021/04/14 00:01:58;;;;;;;4.95;1.13;;;;;;;1.32;76.56;102712.84;5079563;28;20028;-45
2021/04/14 00:04:25;;;;;;;8.82;2.40;;;;;;;1.24;76.69;102707.41;5074597;28;20035;-45
2021/04/14 00:06:54;;;;;;;7.22;1.80;;;;;;;1.31;75.84;102705.06;5076622;28;20124;-45
2021/04/14 00:09:21;;;;;;;7.15;1.10;;;;;;;1.23;77.08;102707.53;5075585;28;20058;-45
2021/04/14 00:11:47;;;;;;;8.20;1.40;;;;;;;1.23;76.48;102708.38;5079790;28;20109;-46
2021/04/14 00:14:12;;;;;;;6.53;1.10;;;;;;;1.23;76.78;102707.53;5063185;28;20989;-46
2021/04/14 00:16:38;;;;;;;6.18;1.30;;;;;;;1.18;77.17;102705.31;5075235;28;20035;-45
2021/04/14 00:19:04;;;;;;;2.42;1.27;;;;;;;1.20;76.79;102698.09;5076034;28;20390;-46
2021/04/14 00:21:30;;;;;;;9.23;2.15;;;;;;;1.15;77.02;102695.03;5073551;28;20501;-45
2021/04/14 00:23:57;;;;;;;8.07;1.73;;;;;;;1.14;76.74;102696.00;5075138;28;20031;-46
2021/04/14 00:26:23;;;;;;;5.38;1.30;;;;;;;1.17;76.33;102687.81;5076646;28;20100;-45
2021/04/14 00:28:49;;;;;;;10.63;1.60;;;;;;;1.16;76.64;102694.06;5075824;28;20024;-46
2021/04/14 00:31:15;;;;;;;4.93;1.77;;;;;;;1.15;76.68;102690.59;5074335;28;20024;-45
2021/04/14 00:33:42;;;;;;;4.28;1.50;;;;;;;1.14;76.54;102688.09;5075433;28;20035;-46
2021/04/14 00:36:08;;;;;;;8.63;1.42;;;;;;;1.07;76.87;102684.31;5075173;28;20038;-45
2021/04/14 00:38:34;;;;;;;3.17;1.27;;;;;;;1.07;77.17;102686.97;5075545;28;20021;-45
2021/04/14 00:41:01;;;;;;;6.15;1.30;;;;;;;1.03;78.04;102693.50;5075303;28;20047;-46
2021/04/14 00:43:30;;;;;;;2.83;1.20;;;;;;;0.98;78.20;102691.28;5064562;28;20035;-45
2021/04/14 00:45:55;;;;;;;7.13;1.92;;;;;;;1.02;77.90;102689.19;5072386;28;20111;-45
2021/04/14 00:48:22;;;;;;;4.72;1.50;;;;;;;0.98;78.33;102682.53;5074723;28;20585;-46
2021/04/14 00:50:48;;;;;;;6.18;1.67;;;;;;;0.87;78.47;102680.84;5076665;28;20113;-47
2021/04/14 00:53:15;;;;;;;6.50;1.90;;;;;;;0.84;78.62;102674.03;5073914;28;20020;-46
2021/04/14 00:55:41;;;;;;;4.70;1.50;;;;;;;0.85;78.47;102680.97;5075400;28;20031;-45
2021/04/14 00:58:08;;;;;;;7.00;1.65;;;;;;;0.86;77.93;102677.38;5073606;28;20107;-45
2021/04/14 01:00:37;;;;;;;7.30;1.13;;;;;;;0.82;78.70;102675.97;5075619;28;20085;-45
2021/04/14 01:03:05;;;;;;;9.90;1.85;;;;;;;0.84;78.35;102678.47;5075108;28;20560;-46
2021/04/14 01:05:34;;;;;;;10.63;1.77;;;;;;;0.87;77.90;102675.56;5057967;28;20024;-46
2021/04/14 01:08:00;;;;;;;5.53;1.17;;;;;;;0.81;78.12;102679.59;5076237;28;20033;-45
2021/04/14 01:10:26;;;;;;;7.80;1.50;;;;;;;0.77;78.64;102680.84;5075730;28;20041;-46
2021/04/14 01:12:53;;;;;;;5.22;1.65;;;;;;;0.73;78.54;102683.91;5075863;28;20035;-45
2021/04/14 01:15:27;;;;;;;6.32;1.23;;;;;;;0.72;78.50;102688.34;5074700;28;20028;-46
2021/04/14 01:17:52;;;;;;;4.33;1.30;;;;;;;0.70;78.82;102684.13;5075651;28;20078;-47
2021/04/14 01:20:18;;;;;;;9.93;1.67;;;;;;;0.64;78.97;102685.53;5074630;28;20766;-46
2021/04/14 01:22:44;;;;;;;3.63;1.60;;;;;;;0.59;79.01;102679.84;5073722;28;20120;-45
2021/04/14 01:25:10;;;;;;;7.18;1.70;;;;;;;0.55;78.86;102681.91;5077594;28;20627;-45
2021/04/14 01:27:36;;;;;;;8.52;1.42;;;;;;;0.59;79.07;102682.47;5078132;28;20035;-45
2021/04/14 01:30:13;;;;;;;7.47;1.30;;;;;;;0.64;78.12;102677.63;5074176;28;20651;-46
2021/04/14 01:32:38;;;;;;;13.02;1.80;;;;;;;0.59;79.14;102679.84;5076856;28;20036;-46
2021/04/14 01:35:05;;;;;;;4.30;1.38;;;;;;;0.51;78.97;102672.56;5075575;28;20031;-45
2021/04/14 01:37:30;;;;;;;8.65;1.95;;;;;;;0.47;79.64;102673.00;5076961;28;20089;-45
2021/04/14 01:39:56;;;;;;;8.07;1.45;;;;;;;0.41;79.51;102670.91;5073823;28;20032;-46
2021/04/14 01:42:21;;;;;;;5.22;1.45;;;;;;;0.34;80.06;102680.28;5073996;28;20043;-46
2021/04/14 01:44:46;;;;;;;2.97;1.17;;;;;;;0.43;79.76;102669.78;5073185;28;20060;-45
2021/04/14 01:47:12;;;;;;;8.00;1.42;;;;;;;0.35;80.08;102674.88;5076374;28;20036;-46
2021/04/14 01:49:38;;;;;;;9.30;1.40;;;;;;;0.30;80.22;102663.91;5077429;28;20024;-46
2021/04/14 01:52:03;;;;;;;4.63;1.55;;;;;;;0.26;80.72;102667.78;5075364;28;20032;-45
2021/04/14 01:54:29;;;;;;;9.80;1.90;;;;;;;0.33;80.08;102678.63;5078797;28;20032;-45
2021/04/14 01:56:54;;;;;;;8.25;1.67;;;;;;;0.29;80.64;102676.25;5072860;28;20023;-46
2021/04/14 01:59:20;;;;;;;4.95;1.48;;;;;;;0.22;80.25;102677.78;5076756;28;20119;-44
2021/04/14 02:01:45;;;;;;;3.97;1.90;;;;;;;0.20;80.87;102677.06;5073604;28;20071;-46
2021/04/14 02:04:11;;;;;;;6.22;1.73;;;;;;;0.15;80.38;102673.97;5074783;28;20159;-45
2021/04/14 02:06:36;;;;;;;8.07;1.60;;;;;;;0.18;80.62;102670.25;5078401;28;20028;-46
2021/04/14 02:09:03;;;;;;;10.60;1.92;;;;;;;0.18;80.58;102675.50;5077059;28;20116;-46
2021/04/14 02:11:29;;;;;;;8.20;1.63;;;;;;;0.21;79.94;102676.09;5075476;28;20031;-45
2021/04/14 02:13:54;;;;;;;7.40;1.48;;;;;;;0.18;80.19;102679.00;5073334;28;20054;-46
2021/04/14 02:16:21;;;;;;;7.80;1.70;;;;;;;0.16;80.70;102678.28;5072140;28;20120;-46
2021/04/14 02:18:49;;;;;;;10.98;3.15;;;;;;;0.15;81.08;102670.50;5076337;28;20035;-47
2021/04/14 02:21:16;;;;;;;10.70;1.83;;;;;;;0.07;81.36;102671.19;5074730;28;20019;-45
2021/04/14 02:23:42;;;;;;;14.63;2.47;;;;;;;0.08;81.15;102664.13;5074672;28;20065;-45
2021/04/14 02:26:17;;;;;;;5.40;1.95;;;;;;;0.02;81.44;102664.66;5075516;28;20028;-45
2021/04/14 02:28:45;;;;;;;7.35;1.85;;;;;;;0.03;81.22;102679.50;5074116;28;20038;-45
2021/04/14 02:31:12;;;;;;;9.95;1.65;;;;;;;0.07;81.20;102671.19;5073280;28;21452;-45
2021/04/14 02:33:37;;;;;;;8.77;1.80;;;;;;;-0.01;81.75;102679.72;5073355;28;20490;-46
2021/04/14 02:36:04;;;;;;;7.25;1.40;;;;;;;-0.04;82.31;102679.16;5062267;28;20032;-45
2021/04/14 02:38:30;;;;;;;8.45;1.83;;;;;;;-0.06;81.70;102676.66;5075433;28;20020;-46
2021/04/14 02:40:56;;;;;;;12.15;2.55;;;;;;;-0.04;81.88;102681.81;5073067;28;20356;-46
2021/04/14 02:43:22;;;;;;;13.02;2.40;;;;;;;-0.04;81.99;102681.81;5073068;28;22092;-45
2021/04/14 02:45:48;;;;;;;5.68;1.73;;;;;;;-0.13;82.21;102679.97;5075004;28;20493;-46
2021/04/14 02:48:15;;;;;;;11.50;2.33;;;;;;;-0.08;82.45;102675.97;5076056;28;20116;-45
2021/04/14 02:50:41;;;;;;;6.53;1.50;;;;;;;-0.07;81.91;102675.00;5072561;28;20020;-46
2021/04/14 02:53:08;;;;;;;7.35;1.65;;;;;;;-0.04;81.67;102673.91;5073715;28;20031;-46
2021/04/14 02:55:35;;;;;;;11.15;2.15;;;;;;;0.00;81.26;102664.78;5074794;28;20090;-45
2021/04/14 02:58:00;;;;;;;6.90;1.80;;;;;;;-0.08;82.54;102673.34;5072896;28;20159;-46
2021/04/14 03:00:28;;;;;;;6.82;1.65;;;;;;;-0.05;82.11;102673.06;5071303;28;20498;-46
2021/04/14 03:02:55;;;;;;;13.48;2.10;;;;;;;-0.07;82.44;102677.63;5071526;28;20102;-45
2021/04/14 03:05:24;;;;;;;8.80;1.85;;;;;;;0.04;81.72;102671.47;5075045;28;20024;-45
2021/04/14 03:07:51;;;;;;;5.18;1.33;;;;;;;0.02;82.09;102676.03;5076274;28;20032;-46
2021/04/14 03:10:17;;;;;;;9.02;1.80;;;;;;;0.06;81.46;102679.22;5076596;28;20023;-46
2021/04/14 03:12:42;;;;;;;10.10;2.33;;;;;;;0.05;81.23;102674.94;5078063;28;20019;-45
2021/04/14 03:15:11;;;;;;;12.45;1.70;;;;;;;0.01;81.41;102676.16;5077314;28;20039;-45
2021/04/14 03:17:37;;;;;;;8.15;1.50;;;;;;;-0.05;81.63;102669.59;5077389;28;20465;-45
2021/04/14 03:20:08;;;;;;;5.75;2.25;;;;;;;-0.05;81.20;102665.16;5079632;28;20119;-46
2021/04/14 03:22:34;;;;;;;9.98;1.63;;;;;;;-0.13;82.29;102664.16;5076751;28;20027;-46
2021/04/14 03:24:59;;;;;;;9.13;1.88;;;;;;;-0.15;82.00;102660.81;5079329;28;20115;-46
2021/04/14 03:27:25;;;;;;;13.25;2.13;;;;;;;-0.15;81.93;102661.66;5078432;28;20115;-46
2021/04/14 03:29:51;;;;;;;3.83;1.70;;;;;;;-0.21;82.66;102662.16;5077016;28;20024;-46
2021/04/14 03:32:16;;;;;;;14.20;2.10;;;;;;;-0.20;81.73;102658.56;5077399;28;20046;-46
2021/04/14 03:34:42;;;;;;;8.35;2.08;;;;;;;-0.34;82.96;102662.38;5080043;28;20043;-48
2021/04/14 03:37:07;;;;;;;11.55;2.75;;;;;;;-0.34;83.16;102665.03;5077894;28;20599;-45
2021/04/14 03:39:33;;;;;;;11.38;2.22;;;;;;;-0.24;82.09;102661.59;5079911;28;20056;-45
2021/04/14 03:41:58;;;;;;;14.10;2.00;;;;;;;-0.25;82.42;102665.19;5080608;28;20020;-45
2021/04/14 03:44:24;;;;;;;9.60;1.65;;;;;;;-0.26;81.70;102666.16;5076794;28;20027;-46
2021/04/14 03:46:50;;;;;;;10.80;2.22;;;;;;;-0.33;82.23;102666.69;5076384;28;20036;-45
2021/04/14 03:49:16;;;;;;;7.65;2.25;;;;;;;-0.42;82.35;102672.72;5077460;28;20751;-46
2021/04/14 03:51:41;;;;;;;9.10;2.00;;;;;;;-0.51;82.18;102673.50;5078632;28;20039;-46
2021/04/14 03:54:07;;;;;;;10.70;2.03;;;;;;;-0.63;82.25;102669.25;5065411;28;20028;-45
2021/04/14 03:56:32;;;;;;;9.90;2.33;;;;;;;-0.62;82.35;102666.50;5077682;28;20494;-46
2021/04/14 03:58:58;;;;;;;15.93;3.67;;;;;;;-0.62;81.95;102669.13;5076025;28;20033;-46
2021/04/14 04:01:28;;;;;;;7.25;2.03;;;;;;;-0.71;82.23;102672.53;5077228;28;20214;-45
2021/04/14 04:03:54;;;;;;;15.75;4.10;;;;;;;-0.72;82.51;102675.25;5078398;28;20049;-46
2021/04/14 04:06:21;;;;;;;10.82;2.63;;;;;;;-0.72;82.29;102677.91;5076223;28;20032;-45
2021/04/14 04:08:48;;;;;;;10.77;3.10;;;;;;;-0.82;82.50;102674.38;5076833;28;20030;-45
2021/04/14 04:11:14;;;;;;;10.27;2.20;;;;;;;-0.83;82.33;102680.59;5075978;28;20031;-47
2021/04/14 04:13:40;;;;;;;11.48;2.47;;;;;;;-0.87;82.98;102679.19;5076015;28;20043;-46
2021/04/14 04:16:06;;;;;;;12.45;2.38;;;;;;;-0.91;82.62;102681.22;5076820;28;20028;-45
2021/04/14 04:18:32;;;;;;;12.23;2.63;;;;;;;-0.95;85.26;102680.63;5079952;28;20028;-45
2021/04/14 04:20:58;;;;;;;11.05;3.50;;;;;;;-0.76;83.29;102685.22;5077520;28;20062;-45
2021/04/14 04:23:24;;;;;;;12.55;2.92;;;;;;;-0.75;83.68;102684.25;5080236;28;20062;-46
2021/04/14 04:25:51;;;;;;;13.73;2.85;;;;;;;-0.66;83.82;102688.78;5077295;28;20038;-45
2021/04/14 04:28:18;;;;;;;13.30;2.70;;;;;;;-0.62;83.03;102690.19;5073125;28;20577;-45
2021/04/14 04:30:44;;;;;;;11.98;3.45;;;;;;;-0.55;83.17;102700.19;5070984;28;20028;-46
2021/04/14 04:33:10;;;;;;;12.05;2.63;;;;;;;-0.53;83.62;102704.41;5072340;28;20405;-46
2021/04/14 04:35:36;;;;;;;9.82;2.50;;;;;;;-0.52;82.31;102706.06;5075539;28;20027;-46
2021/04/14 04:38:01;;;;;;;10.48;2.55;;;;;;;-0.56;82.15;102715.16;5074132;28;20036;-45
2021/04/14 04:40:28;;;;;;;14.98;2.83;;;;;;;-0.74;82.97;102714.03;5075782;28;20078;-46
2021/04/14 04:42:53;;;;;;;9.32;2.53;;;;;;;-0.82;82.88;102716.47;5076904;28;20101;-46
2021/04/14 04:45:23;;;;;;;7.85;2.10;;;;;;;-0.75;83.03;102717.63;5074510;28;20120;-45
2021/04/14 04:47:49;;;;;;;7.55;2.55;;;;;;;-0.79;82.44;102717.06;5073747;28;20028;-45
2021/04/14 04:50:16;;;;;;;12.07;3.28;;;;;;;-0.87;83.12;102716.88;5076401;28;20725;-46
2021/04/14 04:52:42;;;;;;;13.82;2.97;;;;;;;-0.93;84.03;102718.19;5077825;28;20044;-46
2021/04/14 04:55:09;;;;;;;14.57;2.85;;;;;;;-0.85;83.56;102719.38;5080692;28;20188;-45
2021/04/14 04:57:35;;;;;;;8.88;3.10;;;;;;;-0.77;84.21;102717.78;5077666;28;20024;-45
2021/04/14 05:00:01;;;;;;;16.75;3.00;;;;;;;-0.65;82.59;102735.19;5076799;28;20260;-45
2021/04/14 05:02:26;;;;;;;9.13;2.47;;;;;;;-0.61;82.15;102733.97;5075156;28;20020;-47
2021/04/14 05:04:53;;;;;;;11.32;2.53;;;;;;;-0.70;83.05;102740.00;5077465;28;20036;-46
2021/04/14 05:07:19;;;;;;;12.55;2.58;;;;;;;-0.67;82.73;102734.50;5073396;28;20391;-47
2021/04/14 05:09:45;;;;;;;11.15;2.58;;;;;;;-0.64;82.31;102738.66;5073360;28;20031;-46
2021/04/14 05:12:11;;;;;;;16.27;3.30;;;;;;;-0.72;84.42;102738.44;5076087;28;20059;-46
2021/04/14 05:14:37;;;;;;;9.00;3.10;;;;;;;-0.62;84.61;102747.28;5074212;28;20024;-45
2021/04/14 05:17:03;;;;;;;14.05;2.80;;;;;;;-0.48;84.22;102738.25;5075456;28;20121;-45
2021/04/14 05:19:28;;;;;;;8.68;3.00;;;;;;;-0.37;84.52;102752.16;5074923;28;20036;-46
2021/04/14 05:21:56;;;;;;;16.35;2.95;;;;;;;-0.30;84.43;102755.16;5072475;28;20052;-47
2021/04/14 05:24:22;;;;;;;13.50;3.20;;;;;;;-0.23;84.41;102753.66;5073732;28;20059;-46
2021/04/14 05:26:47;;;;;;;11.88;2.90;;;;;;;-0.09;83.96;102757.78;5076379;28;21078;-45
2021/04/14 05:29:13;;;;;;;10.57;3.00;;;;;;;0.09;82.91;102752.75;5076292;28;20028;-45
2021/04/14 05:31:40;;;;;;;8.70;2.50;;;;;;;0.22;82.08;102754.22;5078750;28;20032;-46
2021/04/14 05:34:07;;;;;;;14.27;2.63;;;;;;;0.45;80.47;102759.31;5073776;28;20677;-45
2021/04/14 05:36:33;;;;;;;17.38;2.80;;;;;;;0.55;81.19;102766.31;5075771;28;20030;-45
2021/04/14 05:38:58;;;;;;;18.17;3.00;;;;;;;0.67;80.72;102761.75;5065292;28;20119;-46
2021/04/14 05:41:24;;;;;;;6.13;2.53;;;;;;;0.57;81.96;102764.38;5076177;28;20103;-47
2021/04/14 05:43:50;;;;;;;11.50;2.85;;;;;;;0.58;81.84;102771.31;5075569;28;20143;-47
2021/04/14 05:46:18;;;;;;;10.82;3.03;;;;;;;0.74;80.63;102765.56;5077536;28;20036;-46
2021/04/14 05:48:45;;;;;;;12.07;3.30;;;;;;;0.79;81.26;102768.59;5075477;28;20028;-46
2021/04/14 05:51:14;;;;;;;12.07;2.42;;;;;;;0.77;81.74;102775.84;5074555;28;20055;-45
2021/04/14 05:53:40;;;;;;;15.35;3.50;;;;;;;0.88;81.50;102778.34;5075957;28;20023;-46
2021/04/14 05:56:08;;;;;;;22.83;2.78;;;;;;;1.05;80.48;102771.56;5076363;28;20198;-45
2021/04/14 05:58:35;;;;;;;11.82;3.70;;;;;;;1.21;80.01;102773.69;5075898;28;20066;-46
2021/04/14 06:01:02;;;;;;;12.23;2.55;;;;;;;1.23;79.09;102777.03;5072075;28;20991;-46
2021/04/14 06:03:28;;;;;;;16.60;2.97;;;;;;;1.38;79.01;102773.00;5073620;28;20074;-46
2021/04/14 06:05:54;;;;;;;12.50;3.45;;;;;;;1.54;78.43;102769.81;5071716;28;20031;-45
2021/04/14 06:08:20;;;;;;;11.88;3.33;;;;;;;1.62;78.63;102771.78;5075642;28;20026;-45
2021/04/14 06:10:46;;;;;;;12.77;2.92;;;;;;;1.59;78.63;102764.94;5070893;28;20028;-45
2021/04/14 06:13:11;;;;;;;11.15;3.78;;;;;;;1.67;78.29;102764.28;5073464;28;20024;-46
2021/04/14 06:15:37;;;;;;;12.88;4.28;;;;;;;1.89;77.66;102769.25;5062091;28;20032;-46
2021/04/14 06:18:04;;;;;;;11.57;2.97;;;;;;;1.97;77.30;102769.34;5072138;28;20081;-45
2021/04/14 06:20:33;;;;;;;13.27;3.05;;;;;;;1.95;77.52;102770.47;5071534;28;20612;-46
2021/04/14 06:23:01;;;;;;;14.73;3.97;;;;;;;2.18;76.77;102776.28;5074353;28;20040;-46
2021/04/14 06:25:31;;;;;;;10.63;3.67;;;;;;;2.40;75.93;102768.00;5072266;28;20062;-46
2021/04/14 06:28:06;;;;;;;9.48;3.40;;;;;;;2.42;76.09;102766.88;5071645;28;20032;-47
2021/04/14 06:30:37;;;;;;;9.93;2.92;;;;;;;2.46;76.60;102767.41;5078688;28;20036;-45
2021/04/14 06:33:06;;;;;;;11.82;2.58;;;;;;;2.94;75.46;102766.34;5074668;28;20027;-46
2021/04/14 06:35:32;;;;;;;11.00;2.85;;;;;;;3.27;73.95;102768.38;5075536;28;20111;-46
2021/04/14 06:37:59;;;;;;;13.38;2.65;;;;;;;3.33;73.99;102773.06;5072551;28;20028;-46
2021/04/14 06:43:02;;;;;;;8.65;2.97;;;;;;;3.54;72.90;102775.41;5075317;28;20028;-46
2021/04/14 06:45:34;;;;;;;10.35;2.95;;;;;;;3.80;71.96;102778.13;5077772;28;20028;-47
2021/04/14 06:48:24;;;;;;;15.95;2.00;;;;;;;3.98;71.51;102778.09;5079981;28;20093;-45
2021/04/14 06:50:55;;;;;;;14.60;3.10;;;;;;;4.10;71.17;102790.09;5076832;28;20035;-45
2021/04/14 06:54:04;;;;;;;9.05;2.55;;;;;;;3.87;71.45;102780.97;5078710;28;20035;-45
2021/04/14 06:56:31;;;;;;;5.85;2.47;;;;;;;3.89;72.21;102782.47;5079833;28;20028;-46
2021/04/14 06:59:03;;;;;;;8.75;3.35;;;;;;;4.27;70.58;102783.06;5073737;28;20066;-45
2021/04/14 07:01:37;;;;;;;14.38;2.78;;;;;;;4.48;70.12;102778.19;5073360;28;20021;-47
2021/04/14 07:04:23;;;;;;;12.93;3.13;;;;;;;4.11;71.05;102778.50;5075580;28;20813;-46
2021/04/14 07:06:49;;;;;;;6.95;2.92;;;;;;;4.39;70.83;102773.03;5072068;28;20039;-47
2021/04/14 07:09:34;;;;;;;12.23;3.03;;;;;;;4.53;69.79;102781.25;5076106;28;20028;-46
2021/04/14 07:12:05;;;;;;;10.00;3.72;;;;;;;4.71;69.37;102780.31;5076252;28;20123;-47
2021/04/14 07:14:31;;;;;;;7.72;3.53;;;;;;;4.89;68.58;102775.75;5078685;28;20504;-45
2021/04/14 07:17:33;;;;;;;14.23;3.28;;;;;;;4.77;69.17;102785.81;5076606;28;20036;-47
2021/04/14 07:19:59;;;;;;;5.05;2.70;;;;;;;4.92;68.68;102778.06;5081007;28;20035;-46
2021/04/14 07:22:50;;;;;;;14.02;3.45;;;;;;;5.15;69.06;102772.97;5077708;28;20032;-47
2021/04/14 07:25:27;;;;;;;21.23;3.88;;;;;;;5.23;68.66;102780.16;5075477;28;20386;-46
2021/04/14 07:28:14;;;;;;;9.98;3.30;;;;;;;5.35;68.56;102778.81;5076100;28;20033;-49
2021/04/14 07:30:49;;;;;;;12.68;4.35;;;;;;;5.82;67.69;102775.53;5073786;28;20490;-46
2021/04/14 07:33:36;;;;;;;12.68;2.97;;;;;;;5.73;66.77;102772.03;5078066;28;20119;-46
2021/04/14 07:36:39;;;;;;;10.05;3.25;;;;;;;6.28;65.44;102772.19;5074914;28;20029;-46
2021/04/14 07:39:18;;;;;;;12.25;3.90;;;;;;;6.43;65.13;102769.63;5076699;28;20443;-46
2021/04/14 07:42:08;;;;;;;9.30;4.00;;;;;;;6.41;64.51;102771.63;5077004;28;20505;-47
2021/04/14 07:44:59;;;;;;;7.32;2.97;;;;;;;6.47;63.77;102773.63;5078603;28;20035;-47
2021/04/14 07:47:25;;;;;;;8.20;3.13;;;;;;;6.56;63.37;102779.75;5076617;28;20051;-47
2021/04/14 07:49:51;;;;;;;12.60;3.55;;;;;;;6.52;64.11;102763.28;5073572;28;20024;-46
2021/04/14 07:52:25;;;;;;;10.68;3.90;;;;;;;6.38;64.52;102765.84;5075437;28;20024;-46
2021/04/14 07:54:52;;;;;;;8.98;3.67;;;;;;;6.65;64.09;102771.56;5076445;28;20100;-47
2021/04/14 07:57:31;;;;;;;10.07;3.70;;;;;;;6.68;63.51;102767.72;5077064;28;20036;-46
2021/04/14 08:00:14;;;;;;;9.82;4.22;;;;;;;7.15;63.25;102769.47;5073979;28;20032;-46
2021/04/14 08:02:39;;;;;;;10.20;3.55;;;;;;;7.44;62.05;102774.97;5077088;28;20712;-46
2021/04/14 08:05:19;;;;;;;9.32;3.92;;;;;;;7.65;60.80;102778.81;5077849;28;20032;-46
2021/04/14 08:07:46;;;;;;;8.43;3.80;;;;;;;7.77;60.06;102772.03;5078351;28;20044;-49
2021/04/14 08:10:24;;;;;;;8.60;4.45;;;;;;;7.81;59.60;102782.16;5077458;28;20032;-46
2021/04/14 08:13:05;;;;;;;7.80;4.10;;;;;;;7.71;59.70;102780.75;5072508;28;20039;-47
2021/04/14 08:15:45;;;;;;;7.22;4.07;;;;;;;7.88;59.25;102776.91;5074614;28;20032;-46
2021/04/14 08:18:17;;;;;;;11.40;4.55;;;;;;;7.67;59.21;102774.94;5073772;28;20031;-46
2021/04/14 08:20:45;;;;;;;8.13;4.95;;;;;;;7.68;59.18;102775.78;5075008;28;20020;-46
2021/04/14 08:23:23;;;;;;;8.63;4.63;;;;;;;7.95;58.68;102780.53;5079225;28;20640;-46
2021/04/14 08:26:00;;;;;;;9.27;3.72;;;;;;;8.02;58.31;102777.97;5080148;28;20085;-47
2021/04/14 08:28:42;;;;;;;6.85;4.05;;;;;;;7.84;58.06;102772.97;5074459;28;20036;-48
2021/04/14 08:31:09;;;;;;;7.22;4.07;;;;;;;7.75;59.34;102776.72;5076003;28;20048;-47
2021/04/14 08:33:36;;;;;;;9.80;4.63;;;;;;;8.00;58.79;102775.50;5076549;28;20032;-46
2021/04/14 08:36:11;;;;;;;8.25;4.20;;;;;;;8.01;57.33;102774.47;5074640;28;20027;-46
2021/04/14 08:38:38;;;;;;;8.05;4.72;;;;;;;8.17;57.20;102771.66;5076130;28;20028;-46
2021/04/14 08:41:05;;;;;;;7.75;4.28;;;;;;;8.58;56.44;102768.53;5074793;28;20097;-46
2021/04/14 08:43:42;;;;;;;8.70;3.38;;;;;;;8.88;54.10;102774.69;5075828;28;20036;-48
2021/04/14 08:46:30;;;;;;;5.20;3.13;;;;;;;9.20;53.68;102769.91;5074021;28;20486;-47
2021/04/14 08:49:05;;;;;;;5.70;3.10;;;;;;;9.19;52.28;102776.28;5075051;28;20027;-50
2021/04/14 08:51:36;;;;;;;5.65;3.08;;;;;;;9.04;50.91;102769.13;5074870;28;20462;-46
2021/04/14 08:54:02;;;;;;;7.70;3.42;;;;;;;9.11;52.83;102763.84;5073011;28;20021;-48
2021/04/14 08:56:27;;;;;;;6.80;3.45;;;;;;;9.43;51.75;102767.06;5073404;28;20020;-47
2021/04/14 08:58:55;;;;;;;4.90;2.72;;;;;;;9.76;51.69;102762.84;5073664;28;20024;-46
2021/04/14 09:01:21;;;;;;;7.43;3.15;;;;;;;9.71;50.46;102762.59;5075358;28;20047;-47
2021/04/14 09:03:47;;;;;;;5.30;2.78;;;;;;;9.49;49.72;102751.06;5074809;28;20379;-47
2021/04/14 09:06:14;;;;;;;7.28;3.17;;;;;;;9.57;49.70;102758.97;5074041;28;20024;-47
2021/04/14 09:08:44;;;;;;;5.10;2.70;;;;;;;9.91;48.93;102755.53;5074415;28;20058;-47
2021/04/14 09:11:36;;;;;;;6.22;2.80;;;;;;;9.43;47.93;102761.69;5074058;28;20119;-47
2021/04/14 09:14:18;;;;;;;8.60;2.80;;;;;;;9.39;48.28;102756.75;5072742;28;20039;-47
2021/04/14 09:16:46;;;;;;;7.05;2.75;;;;;;;9.20;48.68;102762.72;5072200;28;20055;-47
2021/04/14 09:19:21;;;;;;;5.10;3.00;;;;;;;9.40;48.73;102749.53;5073678;28;21180;-46
2021/04/14 09:21:51;;;;;;;10.15;3.22;;;;;;;9.36;48.67;102758.97;5074449;28;20599;-46
2021/04/14 09:24:41;;;;;;;4.03;2.88;;;;;;;9.43;47.80;102754.50;5072249;28;20043;-46
2021/04/14 09:27:23;;;;;;;8.10;2.33;;;;;;;9.83;46.81;102758.34;5072177;28;20021;-47
2021/04/14 09:29:51;;;;;;;4.80;2.20;;;;;;;10.39;45.96;102755.66;5074164;28;20120;-47
2021/04/14 09:32:34;;;;;;;3.55;2.15;;;;;;;10.33;43.18;102753.78;5072579;28;20035;-46
2021/04/14 09:35:20;;;;;;;5.53;2.00;;;;;;;10.80;43.42;102754.84;5073041;28;20585;-47
2021/04/14 09:41:49;;;;;;;5.68;2.33;;;;;;;10.84;42.42;102756.09;5072264;28;20059;-47
2021/04/14 09:44:46;;;;;;;4.10;2.10;;;;;;;10.09;41.29;102751.53;5071826;28;20114;-46
2021/04/14 09:47:19;;;;;;;4.72;1.30;;;;;;;10.41;43.01;102761.69;5067787;28;20050;-46
2021/04/14 09:49:49;;;;;;;4.43;1.63;;;;;;;10.68;41.77;102753.75;5073811;28;20110;-48
2021/04/14 09:52:26;;;;;;;2.33;1.10;;;;;;;11.15;40.54;102742.97;5075188;28;20076;-47
2021/04/14 09:54:56;;;;;;;3.85;1.17;;;;;;;11.62;40.11;102757.28;5062621;28;20035;-48
2021/04/14 09:57:31;;;;;;;2.33;1.50;;;;;;;11.88;39.55;102753.81;5072049;28;20107;-47
2021/04/14 10:00:00;;;;;;;2.92;1.30;;;;;;;11.98;39.36;102753.38;5072166;28;20086;-48
2021/04/14 10:02:28;;;;;;;1.90;1.33;;;;;;;12.28;39.82;102753.75;5075721;28;20035;-46
2021/04/14 10:04:54;;;;;;;2.70;1.45;;;;;;;12.52;38.20;102749.53;5075235;28;20052;-47
2021/04/14 10:07:26;;;;;;;3.55;1.70;;;;;;;12.31;39.23;102754.13;5074417;28;20032;-49
2021/04/14 10:10:07;;;;;;;3.25;1.83;;;;;;;11.87;39.31;102752.16;5074556;28;20031;-49
2021/04/14 10:12:33;;;;;;;4.68;1.40;;;;;;;11.58;39.23;102747.97;5074935;28;20040;-46
2021/04/14 10:15:00;;;;;;;4.85;1.60;;;;;;;11.54;39.79;102745.94;5053594;28;20041;-47
2021/04/14 10:17:29;;;;;;;2.75;1.52;;;;;;;11.57;39.38;102754.38;5073826;28;20066;-47
2021/04/14 10:19:58;;;;;;;3.22;1.52;;;;;;;12.27;38.36;102752.91;5076621;28;20154;-47
2021/04/14 10:22:34;;;;;;;3.28;1.20;;;;;;;12.42;38.62;102749.97;5055084;28;20031;-47
2021/04/14 10:25:04;;;;;;;1.90;1.38;;;;;;;12.50;37.27;102740.84;5069968;28;20119;-47
2021/04/14 10:27:30;;;;;;;5.85;2.67;;;;;;;12.17;36.51;102739.06;5078285;28;20032;-47
2021/04/14 10:30:00;;;;;;;6.10;2.28;;;;;;;12.72;37.20;102739.50;5074599;28;20591;-46
2021/04/14 10:32:28;;;;;;;2.30;1.35;;;;;;;12.75;35.99;102741.81;5078890;28;20034;-50
2021/04/14 10:35:04;;;;;;;2.47;1.58;;;;;;;11.53;36.03;102726.31;5074341;28;20023;-49
2021/04/14 10:37:30;;;;;;;3.03;1.27;;;;;;;11.40;35.93;102723.59;5075469;28;20040;-47
2021/04/14 10:40:08;;;;;;;2.35;1.38;;;;;;;12.38;38.93;102727.22;5074705;28;20024;-47
2021/04/14 10:42:34;;;;;;;3.40;1.30;;;;;;;12.64;35.85;102721.75;5076671;28;20024;-47
2021/04/14 10:45:08;;;;;;;2.47;1.17;;;;;;;12.12;35.05;102728.13;5076574;28;20632;-47
2021/04/14 10:47:39;;;;;;;3.75;1.10;;;;;;;11.86;36.23;102730.88;5072903;28;20568;-48
2021/04/14 10:50:11;;;;;;;2.25;1.10;;;;;;;11.69;37.12;102733.13;5076637;28;20078;-47
2021/04/14 10:52:37;;;;;;;2.05;1.35;;;;;;;11.64;36.90;102727.53;5076758;28;20055;-46
2021/04/14 10:55:09;;;;;;;3.60;1.15;;;;;;;11.54;36.19;102732.50;5074148;28;20028;-47
2021/04/14 10:57:42;;;;;;;3.55;1.20;;;;;;;11.50;37.11;102735.59;5075842;28;20027;-47
2021/04/14 11:00:12;;;;;;;2.88;1.25;;;;;;;11.29;37.40;102729.56;5075395;28;20036;-47
2021/04/14 11:02:43;;;;;;;3.28;0.98;;;;;;;11.33;37.12;102730.84;5077097;28;20028;-47
2021/04/14 11:05:11;;;;;;;3.10;1.20;;;;;;;11.51;37.69;102725.69;5074490;28;20032;-47
2021/04/14 11:07:38;;;;;;;2.92;1.00;;;;;;;12.38;36.62;102724.53;5078585;28;20102;-48
2021/04/14 11:10:07;;;;;;;2.20;1.10;;;;;;;13.15;35.59;102715.50;5076856;28;20028;-48
2021/04/14 11:12:34;;;;;;;1.92;1.10;;;;;;;13.39;36.30;102724.66;5077767;28;20774;-48
2021/04/14 11:15:13;;;;;;;4.10;1.20;;;;;;;12.77;35.83;102731.66;5076775;28;20765;-48
2021/04/14 11:17:39;;;;;;;1.35;0.90;;;;;;;12.06;36.89;102727.13;5078950;28;20348;-46
2021/04/14 11:20:09;;;;;;;1.75;0.90;;;;;;;11.83;36.66;102726.72;5074498;28;20036;-47
2021/04/14 11:22:47;;;;;;;5.35;1.92;;;;;;;11.48;36.47;102731.44;5078464;28;20489;-48
2021/04/14 11:25:27;;;;;;;3.22;1.00;;;;;;;11.20;36.40;102729.78;5071450;28;20409;-47
2021/04/14 11:28:00;;;;;;;1.55;0.80;;;;;;;10.93;35.75;102722.69;5075115;28;20038;-49
2021/04/14 11:30:27;;;;;;;1.08;0.55;;;;;;;11.62;34.71;102717.00;5077719;28;20020;-47
2021/04/14 11:32:59;;;;;;;1.20;0.65;;;;;;;11.90;34.77;102719.50;5073649;28;20653;-47
2021/04/14 11:35:40;;;;;;;4.47;1.10;;;;;;;11.56;35.10;102719.69;5073225;28;20024;-48
2021/04/14 11:38:25;;;;;;;2.10;0.68;;;;;;;11.47;35.73;102721.75;5073520;28;20122;-47
2021/04/14 11:40:51;;;;;;;1.40;0.70;;;;;;;11.05;35.62;102723.75;5078040;28;20035;-47
2021/04/14 11:43:34;;;;;;;1.10;0.60;;;;;;;10.83;35.27;102723.09;5073933;28;20032;-47
2021/04/14 11:46:06;;;;;;;0.95;0.60;;;;;;;10.56;34.63;102724.00;5072817;28;20051;-47